createdAt,value
2022-12-28T00:00:30.673Z,997.35
2022-12-28T00:01:30.631Z,997.32
2022-12-28T00:02:30.616Z,997.32
2022-12-28T00:03:30.544Z,997.33
2022-12-28T00:04:30.525Z,997.32
2022-12-28T00:05:30.556Z,997.35
2022-12-28T00:06:30.570Z,997.29
2022-12-28T00:07:30.493Z,997.28
2022-12-28T00:08:30.487Z,997.28
2022-12-28T00:09:30.479Z,997.26
2022-12-28T00:11:08.933Z,997.20
2022-12-28T00:11:31.498Z,997.16
2022-12-28T00:12:30.476Z,997.15
2022-12-28T00:13:30.435Z,997.13
2022-12-28T00:14:30.422Z,997.18
2022-12-28T00:15:30.416Z,997.11
2022-12-28T00:16:30.498Z,997.16
2022-12-28T00:17:30.388Z,997.20
2022-12-28T00:18:30.401Z,997.22
2022-12-28T00:19:30.457Z,997.20
2022-12-28T00:20:30.358Z,997.24
2022-12-28T00:21:30.390Z,997.19
2022-12-28T00:22:30.356Z,997.28
2022-12-28T00:23:30.328Z,997.22
2022-12-28T00:24:30.313Z,997.22
2022-12-28T00:25:30.356Z,997.21
2022-12-28T00:26:30.324Z,997.18
2022-12-28T00:27:30.294Z,997.19
2022-12-28T00:28:30.276Z,997.16
2022-12-28T00:29:30.327Z,997.11
2022-12-28T00:30:30.257Z,997.08
2022-12-28T00:31:30.331Z,997.12
2022-12-28T00:32:30.235Z,997.09
2022-12-28T00:33:30.218Z,997.15
2022-12-28T00:34:30.257Z,997.10
2022-12-28T00:35:30.204Z,997.10
2022-12-28T00:37:10.259Z,997.15
2022-12-28T00:37:31.207Z,997.16
2022-12-28T00:38:30.170Z,997.06
2022-12-28T00:39:30.220Z,997.12
2022-12-28T00:40:30.148Z,997.04
2022-12-28T00:41:30.155Z,996.98
2022-12-28T00:42:30.120Z,997.05
2022-12-28T00:43:30.108Z,997.03
2022-12-28T00:44:30.159Z,997.02
2022-12-28T00:45:30.179Z,996.98
2022-12-28T00:46:30.113Z,996.97
2022-12-28T00:47:30.064Z,997.00
2022-12-28T00:48:30.064Z,996.97
2022-12-28T00:49:30.198Z,996.96
2022-12-28T00:50:30.072Z,997.02
2022-12-28T00:51:30.050Z,996.93
2022-12-28T00:52:30.022Z,996.94
2022-12-28T00:53:30.033Z,996.90
2022-12-28T00:54:30.020Z,996.92
2022-12-28T00:55:29.984Z,996.86
2022-12-28T00:56:30.034Z,996.88
2022-12-28T00:57:29.974Z,996.87
2022-12-28T00:58:29.967Z,996.83
2022-12-28T00:59:29.949Z,996.91
2022-12-28T01:00:29.936Z,996.88
2022-12-28T01:01:30.276Z,996.89
2022-12-28T01:02:29.970Z,996.87
2022-12-28T01:03:29.901Z,996.88
2022-12-28T01:04:30.028Z,996.83
2022-12-28T01:05:29.881Z,996.80
2022-12-28T01:06:29.891Z,996.76
2022-12-28T01:07:29.865Z,996.83
2022-12-28T01:08:29.866Z,996.84
2022-12-28T01:09:29.854Z,996.77
2022-12-28T01:10:29.841Z,996.82
2022-12-28T01:11:29.843Z,996.81
2022-12-28T01:12:34.603Z,996.83
2022-12-28T01:13:30.795Z,996.79
2022-12-28T01:14:29.806Z,996.80
2022-12-28T01:15:29.777Z,996.79
2022-12-28T01:16:29.810Z,996.79
2022-12-28T01:17:29.758Z,996.76
2022-12-28T01:18:29.746Z,996.73
2022-12-28T01:19:29.741Z,996.76
2022-12-28T01:20:29.765Z,996.72
2022-12-28T01:21:29.758Z,996.65
2022-12-28T01:22:29.704Z,996.61
2022-12-28T01:23:29.685Z,996.51
2022-12-28T01:24:29.684Z,996.50
2022-12-28T01:25:29.701Z,996.43
2022-12-28T01:26:29.691Z,996.39
2022-12-28T01:27:29.667Z,996.36
2022-12-28T01:28:29.642Z,996.34
2022-12-28T01:29:29.618Z,996.35
2022-12-28T01:30:29.611Z,996.33
2022-12-28T01:31:29.684Z,996.36
2022-12-28T01:32:29.598Z,996.41
2022-12-28T01:33:29.628Z,996.34
2022-12-28T01:34:29.575Z,996.41
2022-12-28T01:35:29.555Z,996.38
2022-12-28T01:36:29.559Z,996.37
2022-12-28T01:37:29.558Z,996.36
2022-12-28T01:38:29.530Z,996.39
2022-12-28T01:39:29.533Z,996.37
2022-12-28T01:40:29.504Z,996.42
2022-12-28T01:41:29.543Z,996.43
2022-12-28T01:42:29.494Z,996.38
2022-12-28T01:43:30.097Z,996.41
2022-12-28T01:44:29.469Z,996.40
2022-12-28T01:45:29.529Z,996.36
2022-12-28T01:46:29.476Z,996.46
2022-12-28T01:47:29.430Z,996.41
2022-12-28T01:48:29.419Z,996.44
2022-12-28T01:49:29.405Z,996.42
2022-12-28T01:50:29.430Z,996.39
2022-12-28T01:51:29.447Z,996.39
2022-12-28T01:52:29.382Z,996.37
2022-12-28T01:53:29.363Z,996.34
2022-12-28T01:54:29.359Z,996.33
2022-12-28T01:55:29.351Z,996.37
2022-12-28T01:56:29.362Z,996.40
2022-12-28T01:57:29.347Z,996.36
2022-12-28T01:58:29.312Z,996.36
2022-12-28T01:59:29.303Z,996.36
2022-12-28T02:00:29.310Z,996.33
2022-12-28T02:01:29.401Z,996.32
2022-12-28T02:02:29.479Z,996.31
2022-12-28T02:03:29.278Z,996.31
2022-12-28T02:04:29.271Z,996.22
2022-12-28T02:05:29.240Z,996.22
2022-12-28T02:06:29.243Z,996.27
2022-12-28T02:07:29.222Z,996.17
2022-12-28T02:08:29.221Z,996.23
2022-12-28T02:09:29.211Z,996.18
2022-12-28T02:10:41.113Z,996.12
2022-12-28T02:11:30.195Z,996.14
2022-12-28T02:12:29.264Z,996.19
2022-12-28T02:13:29.175Z,996.23
2022-12-28T02:14:29.149Z,996.22
2022-12-28T02:15:29.139Z,996.18
2022-12-28T02:16:29.243Z,996.29
2022-12-28T02:17:29.123Z,996.22
2022-12-28T02:18:29.129Z,996.20
2022-12-28T02:19:29.097Z,996.24
2022-12-28T02:20:29.089Z,996.19
2022-12-28T02:21:29.086Z,996.17
2022-12-28T02:22:29.099Z,996.12
2022-12-28T02:23:29.057Z,996.04
2022-12-28T02:24:29.067Z,996.01
2022-12-28T02:25:29.028Z,996.02
2022-12-28T02:26:29.075Z,995.97
2022-12-28T02:27:29.016Z,995.96
2022-12-28T02:28:29.026Z,995.92
2022-12-28T02:29:29.022Z,995.86
2022-12-28T02:30:29.046Z,995.80
2022-12-28T02:31:28.980Z,995.76
2022-12-28T02:32:28.954Z,995.77
2022-12-28T02:33:28.944Z,995.76
2022-12-28T02:34:28.960Z,995.71
2022-12-28T02:35:28.924Z,995.72
2022-12-28T02:36:28.950Z,995.73
2022-12-28T02:37:28.902Z,995.67
2022-12-28T02:38:28.895Z,995.66
2022-12-28T02:39:28.887Z,995.62
2022-12-28T02:40:28.921Z,995.57
2022-12-28T02:41:28.893Z,995.54
2022-12-28T02:42:28.848Z,995.51
2022-12-28T02:43:28.842Z,995.46
2022-12-28T02:44:28.835Z,995.39
2022-12-28T02:45:28.829Z,995.42
2022-12-28T02:46:28.906Z,995.40
2022-12-28T02:47:28.822Z,995.34
2022-12-28T02:48:28.793Z,995.38
2022-12-28T02:49:28.793Z,995.33
2022-12-28T02:50:28.792Z,995.32
2022-12-28T02:51:28.770Z,995.29
2022-12-28T02:52:28.745Z,995.28
2022-12-28T02:53:28.748Z,995.24
2022-12-28T02:54:28.725Z,995.24
2022-12-28T02:55:28.733Z,995.21
2022-12-28T02:56:28.723Z,995.21
2022-12-28T02:57:28.699Z,995.27
2022-12-28T02:58:28.684Z,995.29
2022-12-28T02:59:28.720Z,995.30
2022-12-28T03:00:28.655Z,995.29
2022-12-28T03:01:28.813Z,995.29
2022-12-28T03:02:28.850Z,995.29
2022-12-28T03:03:28.738Z,995.26
2022-12-28T03:04:28.626Z,995.29
2022-12-28T03:05:28.660Z,995.27
2022-12-28T03:06:30.519Z,995.21
2022-12-28T03:07:28.596Z,995.25
2022-12-28T03:08:28.575Z,995.26
2022-12-28T03:09:28.561Z,995.25
2022-12-28T03:10:28.598Z,995.26
2022-12-28T03:11:28.590Z,995.23
2022-12-28T03:12:28.543Z,995.26
2022-12-28T03:13:28.525Z,995.26
2022-12-28T03:14:28.505Z,995.24
2022-12-28T03:15:28.531Z,995.35
2022-12-28T03:16:28.515Z,995.29
2022-12-28T03:17:28.495Z,995.27
2022-12-28T03:18:28.498Z,995.28
2022-12-28T03:19:28.465Z,995.20
2022-12-28T03:20:28.450Z,995.19
2022-12-28T03:21:28.449Z,995.19
2022-12-28T03:22:28.436Z,995.19
2022-12-28T03:23:28.450Z,995.12
2022-12-28T03:24:28.456Z,995.17
2022-12-28T03:25:28.396Z,995.14
2022-12-28T03:26:28.404Z,995.11
2022-12-28T03:27:28.367Z,995.04
2022-12-28T03:28:28.360Z,995.02
2022-12-28T03:29:28.387Z,995.00
2022-12-28T03:30:28.351Z,995.06
2022-12-28T03:31:28.375Z,994.93
2022-12-28T03:32:28.315Z,994.95
2022-12-28T03:33:28.319Z,994.88
2022-12-28T03:34:28.290Z,994.85
2022-12-28T03:35:28.309Z,994.89
2022-12-28T03:36:28.287Z,994.89
2022-12-28T03:37:28.273Z,994.85
2022-12-28T03:38:28.270Z,994.89
2022-12-28T03:39:28.245Z,994.92
2022-12-28T03:40:28.228Z,994.87
2022-12-28T03:41:28.281Z,994.79
2022-12-28T03:42:28.210Z,994.77
2022-12-28T03:43:28.202Z,994.81
2022-12-28T03:44:28.189Z,994.78
2022-12-28T03:45:46.523Z,994.75
2022-12-28T03:46:29.207Z,994.68
2022-12-28T03:47:28.172Z,994.70
2022-12-28T03:48:28.156Z,994.65
2022-12-28T03:49:28.166Z,994.66
2022-12-28T03:50:28.126Z,994.67
2022-12-28T03:51:28.148Z,994.62
2022-12-28T03:52:28.105Z,994.56
2022-12-28T03:53:28.138Z,994.57
2022-12-28T03:54:28.089Z,994.60
2022-12-28T03:55:28.066Z,994.59
2022-12-28T03:56:28.198Z,994.56
2022-12-28T03:57:28.048Z,994.59
2022-12-28T03:58:28.034Z,994.52
2022-12-28T03:59:28.078Z,994.58
2022-12-28T04:00:28.018Z,994.63
2022-12-28T04:01:28.298Z,994.62
2022-12-28T04:02:28.079Z,994.60
2022-12-28T04:03:28.032Z,994.59
2022-12-28T04:04:27.991Z,994.52
2022-12-28T04:05:27.992Z,994.56
2022-12-28T04:06:28.290Z,994.51
2022-12-28T04:07:28.004Z,994.56
2022-12-28T04:08:27.987Z,994.53
2022-12-28T04:09:27.931Z,994.55
2022-12-28T04:10:27.922Z,994.64
2022-12-28T04:11:27.935Z,994.61
2022-12-28T04:12:27.905Z,994.61
2022-12-28T04:13:27.922Z,994.59
2022-12-28T04:14:27.869Z,994.57
2022-12-28T04:15:27.866Z,994.62
2022-12-28T04:16:27.859Z,994.66
2022-12-28T04:17:27.890Z,994.54
2022-12-28T04:18:27.843Z,994.54
2022-12-28T04:19:27.813Z,994.61
2022-12-28T04:20:27.798Z,994.59
2022-12-28T04:21:27.856Z,994.57
2022-12-28T04:22:27.787Z,994.63
2022-12-28T04:23:27.780Z,994.58
2022-12-28T04:24:27.793Z,994.63
2022-12-28T04:25:27.758Z,994.64
2022-12-28T04:26:27.750Z,994.59
2022-12-28T04:27:27.726Z,994.66
2022-12-28T04:28:27.711Z,994.63
2022-12-28T04:29:27.767Z,994.65
2022-12-28T04:30:27.711Z,994.56
2022-12-28T04:31:27.742Z,994.64
2022-12-28T04:32:27.668Z,994.70
2022-12-28T04:33:27.657Z,994.61
2022-12-28T04:34:27.648Z,994.63
2022-12-28T04:35:27.696Z,994.59
2022-12-28T04:36:27.627Z,994.62
2022-12-28T04:37:27.640Z,994.55
2022-12-28T04:38:27.601Z,994.64
2022-12-28T04:39:27.596Z,994.54
2022-12-28T04:40:28.608Z,994.56
2022-12-28T04:41:27.610Z,994.55
2022-12-28T04:42:27.570Z,994.52
2022-12-28T04:43:27.564Z,994.52
2022-12-28T04:44:27.544Z,994.59
2022-12-28T04:45:27.578Z,994.54
2022-12-28T04:46:27.570Z,994.59
2022-12-28T04:47:27.547Z,994.60
2022-12-28T04:48:27.504Z,994.55
2022-12-28T04:49:27.507Z,994.55
2022-12-28T04:50:27.486Z,994.50
2022-12-28T04:51:27.487Z,994.46
2022-12-28T04:52:27.455Z,994.47
2022-12-28T04:53:27.489Z,994.43
2022-12-28T04:54:27.434Z,994.44
2022-12-28T04:55:32.338Z,994.37
2022-12-28T04:56:28.522Z,994.37
2022-12-28T04:57:27.398Z,994.42
2022-12-28T04:58:27.389Z,994.45
2022-12-28T04:59:27.386Z,994.46
2022-12-28T05:00:27.460Z,994.44
2022-12-28T05:01:27.510Z,994.46
2022-12-28T05:02:27.534Z,994.51
2022-12-28T05:03:27.333Z,994.54
2022-12-28T05:04:27.337Z,994.50
2022-12-28T05:05:27.324Z,994.51
2022-12-28T05:06:27.418Z,994.50
2022-12-28T05:07:27.311Z,994.48
2022-12-28T05:08:27.288Z,994.51
2022-12-28T05:09:27.299Z,994.56
2022-12-28T05:10:27.285Z,994.53
2022-12-28T05:11:27.285Z,994.50
2022-12-28T05:12:27.236Z,994.50
2022-12-28T05:13:27.262Z,994.51
2022-12-28T05:14:29.854Z,994.50
2022-12-28T05:15:28.218Z,994.43
2022-12-28T05:16:27.320Z,994.44
2022-12-28T05:17:27.186Z,994.51
2022-12-28T05:18:27.173Z,994.49
2022-12-28T05:19:27.209Z,994.55
2022-12-28T05:20:27.154Z,994.49
2022-12-28T05:21:27.199Z,994.53
2022-12-28T05:22:27.131Z,994.52
2022-12-28T05:23:27.132Z,994.52
2022-12-28T05:24:27.111Z,994.55
2022-12-28T05:25:27.141Z,994.48
2022-12-28T05:26:27.105Z,994.43
2022-12-28T05:27:27.080Z,994.53
2022-12-28T05:28:27.067Z,994.48
2022-12-28T05:29:27.062Z,994.48
2022-12-28T05:30:27.047Z,994.46
2022-12-28T05:31:27.150Z,994.51
2022-12-28T05:32:27.029Z,994.51
2022-12-28T05:33:27.026Z,994.46
2022-12-28T05:34:27.000Z,994.50
2022-12-28T05:35:27.003Z,994.48
2022-12-28T05:36:26.996Z,994.46
2022-12-28T05:37:27.008Z,994.40
2022-12-28T05:38:26.972Z,994.32
2022-12-28T05:39:26.947Z,994.32
2022-12-28T05:40:26.943Z,994.28
2022-12-28T05:41:26.995Z,994.28
2022-12-28T05:42:26.928Z,994.27
2022-12-28T05:43:26.915Z,994.31
2022-12-28T05:44:26.925Z,994.25
2022-12-28T05:45:26.884Z,994.28
2022-12-28T05:46:26.943Z,994.29
2022-12-28T05:47:26.865Z,994.21
2022-12-28T05:48:26.851Z,994.18
2022-12-28T05:49:26.841Z,994.20
2022-12-28T05:50:26.855Z,994.15
2022-12-28T05:51:26.854Z,994.21
2022-12-28T05:52:26.808Z,994.20
2022-12-28T05:53:26.801Z,994.17
2022-12-28T05:54:26.785Z,994.20
2022-12-28T05:55:26.794Z,994.25
2022-12-28T05:56:26.808Z,994.26
2022-12-28T05:57:26.781Z,994.29
2022-12-28T05:58:26.755Z,994.31
2022-12-28T05:59:26.734Z,994.28
2022-12-28T06:00:26.737Z,994.27
2022-12-28T06:01:26.861Z,994.29
2022-12-28T06:02:26.936Z,994.28
2022-12-28T06:03:26.889Z,994.22
2022-12-28T06:04:26.684Z,994.24
2022-12-28T06:05:26.674Z,994.22
2022-12-28T06:06:26.677Z,994.23
2022-12-28T06:07:26.652Z,994.19
2022-12-28T06:08:26.640Z,994.20
2022-12-28T06:09:26.644Z,994.22
2022-12-28T06:10:26.628Z,994.22
2022-12-28T06:11:26.666Z,994.18
2022-12-28T06:12:26.594Z,994.15
2022-12-28T06:13:26.603Z,994.11
2022-12-28T06:14:26.568Z,994.09
2022-12-28T06:15:26.565Z,994.09
2022-12-28T06:16:26.689Z,994.07
2022-12-28T06:17:26.558Z,994.11
2022-12-28T06:18:26.530Z,994.07
2022-12-28T06:19:26.534Z,994.04
2022-12-28T06:20:26.513Z,994.00
2022-12-28T06:21:26.667Z,994.02
2022-12-28T06:22:26.507Z,993.99
2022-12-28T06:23:26.524Z,993.95
2022-12-28T06:24:26.467Z,993.91
2022-12-28T06:25:26.466Z,993.87
2022-12-28T06:26:26.465Z,993.87
2022-12-28T06:27:26.429Z,993.85
2022-12-28T06:28:26.433Z,993.86
2022-12-28T06:29:26.433Z,993.80
2022-12-28T06:30:26.395Z,993.82
2022-12-28T06:31:26.548Z,993.81
2022-12-28T06:32:26.380Z,993.83
2022-12-28T06:33:26.392Z,993.88
2022-12-28T06:34:26.374Z,993.92
2022-12-28T06:35:26.363Z,993.90
2022-12-28T06:36:26.395Z,993.87
2022-12-28T06:37:26.331Z,993.86
2022-12-28T06:38:26.308Z,993.82
2022-12-28T06:39:26.302Z,993.88
2022-12-28T06:40:33.488Z,993.80
2022-12-28T06:41:27.312Z,993.83
2022-12-28T06:42:26.381Z,993.84
2022-12-28T06:43:26.281Z,993.83
2022-12-28T06:44:26.255Z,993.84
2022-12-28T06:45:26.262Z,993.89
2022-12-28T06:46:26.244Z,993.84
2022-12-28T06:49:51.991Z,993.90
2022-12-28T06:50:51.957Z,993.82
2022-12-28T06:51:51.960Z,993.83
2022-12-28T06:52:51.933Z,993.91
2022-12-28T06:53:51.923Z,993.92
2022-12-28T06:54:51.925Z,993.83
2022-12-28T06:55:51.931Z,993.89
2022-12-28T06:56:51.919Z,993.91
2022-12-28T06:57:51.880Z,993.86
2022-12-28T06:58:54.486Z,993.89
2022-12-28T06:59:52.866Z,993.91
2022-12-28T07:00:51.955Z,993.86
2022-12-28T07:01:52.080Z,993.84
2022-12-28T07:02:51.861Z,993.90
2022-12-28T07:03:51.827Z,993.81
2022-12-28T07:04:51.859Z,993.82
2022-12-28T07:05:51.822Z,993.78
2022-12-28T07:06:51.802Z,993.75
2022-12-28T07:07:51.773Z,993.83
2022-12-28T07:08:51.765Z,993.77
2022-12-28T07:09:51.755Z,993.74
2022-12-28T07:10:51.761Z,993.75
2022-12-28T07:11:51.822Z,993.68
2022-12-28T07:12:51.728Z,993.70
2022-12-28T07:13:51.713Z,993.67
2022-12-28T07:14:51.700Z,993.64
2022-12-28T07:15:51.687Z,993.65
2022-12-28T07:16:51.712Z,993.62
2022-12-28T07:17:51.707Z,993.66
2022-12-28T07:18:51.655Z,993.71
2022-12-28T07:19:51.655Z,993.67
2022-12-28T07:20:51.638Z,993.65
2022-12-28T07:21:51.640Z,993.62
2022-12-28T07:22:51.614Z,993.63
2022-12-28T07:23:51.624Z,993.54
2022-12-28T07:24:51.605Z,993.57
2022-12-28T07:25:51.581Z,993.58
2022-12-28T07:26:51.586Z,993.47
2022-12-28T07:27:51.562Z,993.55
2022-12-28T07:28:51.558Z,993.54
2022-12-28T07:29:51.560Z,993.52
2022-12-28T07:30:51.592Z,993.54
2022-12-28T07:31:51.540Z,993.55
2022-12-28T07:32:51.527Z,993.54
2022-12-28T07:33:51.508Z,993.56
2022-12-28T07:34:51.490Z,993.59
2022-12-28T07:35:51.516Z,993.52
2022-12-28T07:36:51.478Z,993.57
2022-12-28T07:37:51.455Z,993.49
2022-12-28T07:38:51.477Z,993.42
2022-12-28T07:39:51.430Z,993.43
2022-12-28T07:40:51.420Z,993.43
2022-12-28T07:41:51.443Z,993.45
2022-12-28T07:42:51.397Z,993.43
2022-12-28T07:43:51.401Z,993.52
2022-12-28T07:44:51.370Z,993.46
2022-12-28T07:45:51.390Z,993.54
2022-12-28T07:46:51.349Z,993.47
2022-12-28T07:47:51.353Z,993.51
2022-12-28T07:48:51.370Z,993.46
2022-12-28T07:49:51.355Z,993.46
2022-12-28T07:50:51.315Z,993.49
2022-12-28T07:51:51.298Z,993.50
2022-12-28T07:52:51.293Z,993.52
2022-12-28T07:53:51.312Z,993.51
2022-12-28T07:54:51.371Z,993.55
2022-12-28T07:55:51.273Z,993.61
2022-12-28T07:56:51.271Z,993.63
2022-12-28T07:57:51.281Z,993.61
2022-12-28T07:58:51.225Z,993.57
2022-12-28T07:59:51.235Z,993.57
2022-12-28T08:00:51.288Z,993.60
2022-12-28T08:04:14.627Z,993.46
2022-12-28T08:05:11.186Z,993.40
2022-12-28T08:06:11.173Z,993.35
2022-12-28T08:07:11.160Z,993.38
2022-12-28T08:08:11.149Z,993.35
2022-12-28T08:09:11.147Z,993.34
2022-12-28T08:10:11.137Z,993.27
2022-12-28T08:11:11.127Z,993.25
2022-12-28T08:12:11.112Z,993.27
2022-12-28T08:13:11.130Z,993.18
2022-12-28T08:14:11.104Z,993.19
2022-12-28T08:15:11.061Z,993.20
2022-12-28T08:16:11.147Z,993.21
2022-12-28T08:17:14.843Z,993.21
2022-12-28T08:18:12.036Z,993.22
2022-12-28T08:19:11.025Z,993.23
2022-12-28T08:20:11.046Z,993.28
2022-12-28T08:21:11.063Z,993.23
2022-12-28T08:22:10.990Z,993.22
2022-12-28T08:23:10.987Z,993.24
2022-12-28T08:24:10.978Z,993.26
2022-12-28T08:25:11.083Z,993.26
2022-12-28T08:26:11.059Z,993.23
2022-12-28T08:27:11.015Z,993.26
2022-12-28T08:28:11.577Z,993.30
2022-12-28T08:29:10.951Z,993.27
2022-12-28T08:30:10.912Z,993.26
2022-12-28T08:31:10.955Z,993.27
2022-12-28T08:32:10.895Z,993.28
2022-12-28T08:33:10.878Z,993.30
2022-12-28T08:34:10.871Z,993.29
2022-12-28T08:35:10.916Z,993.24
2022-12-28T08:36:11.331Z,993.28
2022-12-28T08:37:11.333Z,993.31
2022-12-28T08:38:10.819Z,993.22
2022-12-28T08:39:10.822Z,993.23
2022-12-28T08:40:10.807Z,993.26
2022-12-28T08:41:10.828Z,993.19
2022-12-28T08:42:10.791Z,993.13
2022-12-28T08:43:11.106Z,993.13
2022-12-28T08:44:10.766Z,993.14
2022-12-28T08:45:10.893Z,993.14
2022-12-28T08:46:11.569Z,993.08
2022-12-28T08:47:10.768Z,993.18
2022-12-28T08:48:10.715Z,993.13
2022-12-28T08:49:10.717Z,993.17
2022-12-28T08:50:12.287Z,993.13
2022-12-28T08:51:10.710Z,993.15
2022-12-28T08:52:11.038Z,993.07
2022-12-28T08:53:10.674Z,993.05
2022-12-28T08:54:11.581Z,993.03
2022-12-28T08:55:12.183Z,992.97
2022-12-28T08:56:10.666Z,993.01
2022-12-28T08:57:10.636Z,993.06
2022-12-28T08:58:10.618Z,993.01
2022-12-28T08:59:10.595Z,993.01
2022-12-28T09:00:10.581Z,993.02
2022-12-28T09:01:10.644Z,992.96
2022-12-28T09:02:10.698Z,992.93
2022-12-28T09:03:11.226Z,992.88
2022-12-28T09:04:10.805Z,992.95
2022-12-28T09:05:10.530Z,992.99
2022-12-28T09:06:10.523Z,993.02
2022-12-28T09:07:10.524Z,992.95
2022-12-28T09:08:10.511Z,992.97
2022-12-28T09:09:10.484Z,993.05
2022-12-28T09:10:10.618Z,992.97
2022-12-28T09:11:10.585Z,992.98
2022-12-28T09:12:14.068Z,992.88
2022-12-28T09:13:10.642Z,992.90
2022-12-28T09:14:10.431Z,992.92
2022-12-28T09:15:10.415Z,992.91
2022-12-28T09:16:10.550Z,992.90
2022-12-28T09:17:10.416Z,992.93
2022-12-28T09:18:10.428Z,992.89
2022-12-28T09:19:10.435Z,992.88
2022-12-28T09:20:10.870Z,992.87
2022-12-28T09:21:10.568Z,992.92
2022-12-28T09:22:10.984Z,992.91
2022-12-28T09:23:10.392Z,992.90
2022-12-28T09:24:10.369Z,992.84
2022-12-28T09:25:10.385Z,992.88
2022-12-28T09:26:10.346Z,992.91
2022-12-28T09:27:10.344Z,992.85
2022-12-28T09:28:10.346Z,992.80
2022-12-28T09:29:10.331Z,992.80
2022-12-28T09:30:11.139Z,992.83
2022-12-28T09:31:11.365Z,992.87
2022-12-28T09:32:10.244Z,992.87
2022-12-28T09:33:10.264Z,992.73
2022-12-28T09:35:11.213Z,992.75
2022-12-28T09:36:10.201Z,992.83
2022-12-28T09:37:10.204Z,992.79
2022-12-28T09:38:10.284Z,992.75
2022-12-28T09:39:11.152Z,992.76
2022-12-28T09:40:10.172Z,992.72
2022-12-28T09:41:10.145Z,992.67
2022-12-28T09:42:10.131Z,992.74
2022-12-28T09:43:10.112Z,992.72
2022-12-28T09:44:10.107Z,992.70
2022-12-28T09:45:10.132Z,992.74
2022-12-28T09:46:10.180Z,992.79
2022-12-28T09:47:10.208Z,992.76
2022-12-28T09:48:11.171Z,992.78
2022-12-28T09:49:10.049Z,992.76
2022-12-28T09:50:10.039Z,992.69
2022-12-28T09:51:10.043Z,992.80
2022-12-28T09:52:10.033Z,992.75
2022-12-28T09:53:10.034Z,992.73
2022-12-28T09:54:10.014Z,992.72
2022-12-28T09:55:10.000Z,992.76
2022-12-28T09:56:10.022Z,992.72
2022-12-28T09:57:13.489Z,992.72
2022-12-28T09:58:09.959Z,992.73
2022-12-28T09:59:09.969Z,992.72
2022-12-28T10:00:09.929Z,992.66
2022-12-28T10:01:09.955Z,992.63
2022-12-28T10:02:09.982Z,992.63
2022-12-28T10:03:10.091Z,992.55
2022-12-28T10:04:09.907Z,992.60
2022-12-28T10:05:10.800Z,992.61
2022-12-28T10:06:15.454Z,992.60
2022-12-28T10:07:09.868Z,992.53
2022-12-28T10:08:09.851Z,992.57
2022-12-28T10:09:09.833Z,992.53
2022-12-28T10:10:09.825Z,992.56
2022-12-28T10:11:09.807Z,992.57
2022-12-28T10:12:09.854Z,992.50
2022-12-28T10:13:37.167Z,992.50
2022-12-28T10:14:11.540Z,992.57
2022-12-28T10:15:12.341Z,992.57
2022-12-28T10:16:09.804Z,992.57
2022-12-28T10:17:09.789Z,992.58
2022-12-28T10:18:09.736Z,992.64
2022-12-28T10:19:09.723Z,992.51
2022-12-28T10:20:09.712Z,992.52
2022-12-28T10:21:09.702Z,992.59
2022-12-28T10:22:09.716Z,992.50
2022-12-28T10:23:10.997Z,992.48
2022-12-28T10:24:41.200Z,992.43
2022-12-28T10:25:10.654Z,992.52
2022-12-28T10:26:09.642Z,992.51
2022-12-28T10:27:09.648Z,992.50
2022-12-28T10:28:09.637Z,992.45
2022-12-28T10:29:09.627Z,992.43
2022-12-28T10:30:09.622Z,992.38
2022-12-28T10:31:09.756Z,992.33
2022-12-28T10:32:10.417Z,992.35
2022-12-28T10:33:13.797Z,992.30
2022-12-28T10:34:09.559Z,992.31
2022-12-28T10:35:09.547Z,992.31
2022-12-28T10:36:09.534Z,992.21
2022-12-28T10:37:14.076Z,992.19
2022-12-28T10:38:09.514Z,992.26
2022-12-28T10:39:09.532Z,992.23
2022-12-28T10:40:09.738Z,992.20
2022-12-28T10:41:09.624Z,992.17
2022-12-28T10:42:09.891Z,992.14
2022-12-28T10:43:11.266Z,992.17
2022-12-28T10:44:38.295Z,992.15
2022-12-28T10:45:10.440Z,992.14
2022-12-28T10:46:09.428Z,992.11
2022-12-28T10:47:09.412Z,992.08
2022-12-28T10:48:09.524Z,992.18
2022-12-28T10:49:15.255Z,992.12
2022-12-28T10:50:36.971Z,992.09
2022-12-28T10:51:10.456Z,992.08
2022-12-28T10:52:09.360Z,992.04
2022-12-28T10:53:09.406Z,991.97
2022-12-28T10:54:09.333Z,991.91
2022-12-28T10:55:09.319Z,991.89
2022-12-28T10:56:09.329Z,991.85
2022-12-28T10:57:09.395Z,991.86
2022-12-28T10:59:10.568Z,991.84
2022-12-28T11:00:09.370Z,991.80
2022-12-28T11:01:09.348Z,991.84
2022-12-28T11:02:09.318Z,991.82
2022-12-28T11:03:09.300Z,991.83
2022-12-28T11:04:09.259Z,991.80
2022-12-28T11:05:09.213Z,991.79
2022-12-28T11:06:09.286Z,991.75
2022-12-28T11:07:09.367Z,991.80
2022-12-28T11:08:02.336Z,991.81
2022-12-28T11:09:02.094Z,991.81
2022-12-28T11:10:09.145Z,991.75
2022-12-28T11:11:03.789Z,991.75
2022-12-28T11:12:02.088Z,991.70
2022-12-28T11:13:02.031Z,991.73
2022-12-28T11:14:02.016Z,991.69
2022-12-28T11:15:02.006Z,991.64
2022-12-28T11:16:02.120Z,991.69
2022-12-28T11:17:01.999Z,991.71
2022-12-28T11:18:01.991Z,991.74
2022-12-28T11:19:04.022Z,991.66
2022-12-28T11:20:02.239Z,991.63
2022-12-28T11:21:02.018Z,991.72
2022-12-28T11:22:01.951Z,991.63
2022-12-28T11:23:01.915Z,991.70
2022-12-28T11:24:01.906Z,991.75
2022-12-28T11:25:01.904Z,991.70
2022-12-28T11:26:01.886Z,991.64
2022-12-28T11:27:01.949Z,991.67
2022-12-28T11:28:02.107Z,991.65
2022-12-28T11:29:02.138Z,991.61
2022-12-28T11:30:01.847Z,991.50
2022-12-28T11:31:01.831Z,991.59
2022-12-28T11:32:01.951Z,991.58
2022-12-28T11:33:01.801Z,991.51
2022-12-28T11:34:01.811Z,991.48
2022-12-28T11:35:01.901Z,991.59
2022-12-28T11:36:06.881Z,991.56
2022-12-28T11:37:03.603Z,991.48
2022-12-28T11:38:02.102Z,991.50
2022-12-28T11:39:01.750Z,991.42
2022-12-28T11:40:01.746Z,991.44
2022-12-28T11:41:01.726Z,991.42
2022-12-28T11:43:02.703Z,991.38
2022-12-28T11:44:01.694Z,991.38
2022-12-28T11:45:02.105Z,991.37
2022-12-28T11:46:02.866Z,991.35
2022-12-28T11:47:02.838Z,991.32
2022-12-28T11:48:01.674Z,991.30
2022-12-28T11:49:01.636Z,991.26
2022-12-28T11:50:01.637Z,991.33
2022-12-28T11:51:01.621Z,991.28
2022-12-28T11:52:01.663Z,991.30
2022-12-28T11:53:01.616Z,991.23
2022-12-28T11:54:01.778Z,991.22
2022-12-28T11:55:02.581Z,991.31
2022-12-28T11:56:02.564Z,991.27
2022-12-28T11:57:01.569Z,991.32
2022-12-28T11:58:01.540Z,991.32
2022-12-28T11:59:01.606Z,991.25
2022-12-28T12:00:01.556Z,991.22
2022-12-28T12:01:01.569Z,991.25
2022-12-28T12:02:01.620Z,991.19
2022-12-28T12:03:01.734Z,991.16
2022-12-28T12:04:01.752Z,991.12
2022-12-28T12:05:01.635Z,991.14
2022-12-28T12:06:01.471Z,991.11
2022-12-28T12:07:01.510Z,991.02
2022-12-28T12:08:01.445Z,991.03
2022-12-28T12:09:01.443Z,990.98
2022-12-28T12:10:01.461Z,991.07
2022-12-28T12:11:01.409Z,990.92
2022-12-28T12:12:01.932Z,991.01
2022-12-28T12:13:01.811Z,990.95
2022-12-28T12:14:01.553Z,990.93
2022-12-28T12:15:01.357Z,990.84
2022-12-28T12:16:01.438Z,990.89
2022-12-28T12:17:01.382Z,990.83
2022-12-28T12:18:01.360Z,990.80
2022-12-28T12:19:01.670Z,990.73
2022-12-28T12:20:01.342Z,990.74
2022-12-28T12:21:01.895Z,990.80
2022-12-28T12:22:01.713Z,990.77
2022-12-28T12:23:01.542Z,990.78
2022-12-28T12:24:01.268Z,990.67
2022-12-28T12:25:01.275Z,990.69
2022-12-28T12:26:01.241Z,990.69
2022-12-28T12:27:01.262Z,990.72
2022-12-28T12:28:01.241Z,990.66
2022-12-28T12:29:01.286Z,990.61
2022-12-28T12:30:02.084Z,990.67
2022-12-28T12:31:01.578Z,990.63
2022-12-28T12:32:01.446Z,990.62
2022-12-28T12:33:01.165Z,990.58
2022-12-28T12:34:01.157Z,990.61
2022-12-28T12:35:01.138Z,990.58
2022-12-28T12:36:01.146Z,990.57